Time;durP1;ratioP1;P1;durP2;ratioP2;P2;SDS_P1;SDS_P2;PMS_P1;PMS_P2;Temp;Humidity;BMP_temperature;BMP_pressure;BME280_temperature;BME280_humidity;BME280_pressure;Samples;Min_cycle;Max_cycle;Signal;HPM_P1;HPM_P2
2021/04/17 00:00:19;;;;;;;0.40;0.10;;;21.80;36.90;;;;;;5015242;28;20025;-82
2021/04/17 00:02:45;;;;;;;0.50;0.10;;;21.80;36.90;;;;;;5019301;28;20117;-81
2021/04/17 00:05:11;;;;;;;1.48;0.10;;;21.80;36.90;;;;;;5033545;28;20067;-82
2021/04/17 00:07:37;;;;;;;1.25;0.10;;;21.80;36.90;;;;;;5048551;28;20055;-82
2021/04/17 00:10:04;;;;;;;0.50;0.10;;;21.80;36.90;;;;;;5016909;28;20017;-82
2021/04/17 00:12:30;;;;;;;0.30;0.10;;;21.80;37.00;;;;;;5052618;28;20089;-81
2021/04/17 00:14:55;;;;;;;0.50;0.10;;;21.80;37.00;;;;;;5033154;28;20064;-82
2021/04/17 00:17:21;;;;;;;0.20;0.10;;;21.80;37.00;;;;;;5022268;28;20394;-82
2021/04/17 00:19:50;;;;;;;0.15;0.00;;;21.70;36.90;;;;;;5055636;28;20024;-82
2021/04/17 00:22:16;;;;;;;0.63;0.20;;;21.80;37.00;;;;;;5038157;28;20086;-82
2021/04/17 00:24:42;;;;;;;0.63;0.30;;;21.80;36.90;;;;;;5033476;28;20026;-82
2021/04/17 00:27:08;;;;;;;0.30;0.10;;;21.70;37.00;;;;;;5034861;28;20515;-82
2021/04/17 00:29:34;;;;;;;0.20;0.10;;;21.70;36.90;;;;;;5040604;28;20028;-83
2021/04/17 00:32:01;;;;;;;0.75;0.10;;;21.70;36.90;;;;;;5039329;28;20025;-82
2021/04/17 00:34:27;;;;;;;1.83;0.10;;;21.70;37.00;;;;;;5022534;28;20040;-82
2021/04/17 00:36:53;;;;;;;1.38;0.40;;;21.70;36.90;;;;;;5038788;28;20051;-82
2021/04/17 00:39:18;;;;;;;0.30;0.10;;;21.70;36.90;;;;;;5040004;28;20040;-82
2021/04/17 00:41:44;;;;;;;1.10;0.10;;;21.70;36.90;;;;;;5063791;28;20056;-82
2021/04/17 00:44:10;;;;;;;1.55;0.10;;;21.60;36.90;;;;;;5042255;28;20048;-82
2021/04/17 00:46:36;;;;;;;0.38;0.10;;;21.60;37.00;;;;;;5041274;28;20481;-82
2021/04/17 00:49:03;;;;;;;0.40;0.20;;;21.60;37.00;;;;;;5039720;28;20021;-82
2021/04/17 00:51:29;;;;;;;0.38;0.10;;;21.70;36.90;;;;;;5019695;28;20681;-82
2021/04/17 00:53:54;;;;;;;0.75;0.10;;;21.60;37.00;;;;;;5049347;28;20171;-82
2021/04/17 00:56:20;;;;;;;0.15;0.03;;;21.70;37.00;;;;;;5018499;28;20060;-81
2021/04/17 00:58:47;;;;;;;0.15;0.00;;;21.60;37.00;;;;;;5050803;28;20504;-82
2021/04/17 01:01:13;;;;;;;0.80;0.10;;;21.60;36.90;;;;;;5031888;28;20032;-81
2021/04/17 01:04:03;;;;;;;0.20;0.10;;;21.60;37.00;;;;;;5034119;28;20033;-82
2021/04/17 01:06:42;;;;;;;0.20;0.10;;;21.60;37.00;;;;;;5036606;28;20484;-81
2021/04/17 01:09:32;;;;;;;0.20;0.10;;;21.50;36.90;;;;;;5033268;28;20029;-81
2021/04/17 01:12:03;;;;;;;1.10;0.10;;;21.50;37.00;;;;;;5019767;28;20025;-81
2021/04/17 01:14:30;;;;;;;0.30;0.10;;;21.50;37.00;;;;;;5035798;28;20021;-81
2021/04/17 01:16:57;;;;;;;0.28;0.10;;;21.50;36.80;;;;;;5034294;28;20033;-82
2021/04/17 01:19:37;;;;;;;0.32;0.10;;;21.50;36.80;;;;;;5038853;28;20033;-81
2021/04/17 01:22:04;;;;;;;0.25;0.03;;;21.50;36.90;;;;;;5037349;28;20052;-81
2021/04/17 01:24:33;;;;;;;0.30;0.10;;;21.50;36.80;;;;;;5017325;28;20028;-82
2021/04/17 01:26:59;;;;;;;1.13;0.10;;;21.50;36.80;;;;;;5037917;28;20029;-81
2021/04/17 01:29:25;;;;;;;0.30;0.10;;;21.50;36.80;;;;;;5037034;28;20028;-82
2021/04/17 01:31:52;;;;;;;0.43;0.10;;;21.50;36.80;;;;;;5018277;28;20028;-82
2021/04/17 01:34:18;;;;;;;0.20;0.10;;;21.50;36.80;;;;;;5035182;28;20103;-81
2021/04/17 01:36:44;;;;;;;0.57;0.20;;;21.50;36.80;;;;;;5032172;28;20024;-83
2021/04/17 01:39:13;;;;;;;0.20;0.00;;;21.50;36.80;;;;;;5033740;28;20036;-82
2021/04/17 01:41:43;;;;;;;0.30;0.03;;;21.50;36.80;;;;;;5034193;28;20037;-82
2021/04/17 01:44:13;;;;;;;0.20;0.00;;;21.40;36.70;;;;;;5036953;28;20021;-83
2021/04/17 01:46:46;;;;;;;1.20;0.10;;;21.40;36.70;;;;;;5036011;28;20439;-82
2021/04/17 01:49:14;;;;;;;0.22;0.10;;;21.40;36.70;;;;;;5032879;28;20024;-82
2021/04/17 01:51:42;;;;;;;0.65;0.10;;;21.40;36.70;;;;;;5054825;28;20434;-82
2021/04/17 01:54:29;;;;;;;3.20;0.10;;;21.40;36.70;;;;;;5033577;28;20565;-83
2021/04/17 01:57:02;;;;;;;0.95;0.10;;;21.40;36.70;;;;;;5036535;28;20029;-81
2021/04/17 01:59:31;;;;;;;1.52;0.10;;;21.40;36.70;;;;;;5050491;28;20028;-83
2021/04/17 02:01:57;;;;;;;0.30;0.10;;;21.40;36.70;;;;;;5018517;28;20044;-83
2021/04/17 02:04:23;;;;;;;0.20;0.03;;;21.40;36.70;;;;;;5031293;28;20017;-82
2021/04/17 02:06:48;;;;;;;0.30;0.10;;;21.30;36.60;;;;;;5019254;28;20028;-82
2021/04/17 02:09:14;;;;;;;0.20;0.00;;;21.30;36.60;;;;;;5036019;28;20036;-82
2021/04/17 02:11:40;;;;;;;0.43;0.10;;;21.40;36.70;;;;;;5036483;28;20089;-82
2021/04/17 02:14:06;;;;;;;0.32;0.10;;;21.30;36.60;;;;;;5029621;28;20476;-82
2021/04/17 02:16:57;;;;;;;0.30;0.08;;;21.40;36.60;;;;;;5021237;28;20025;-83
2021/04/17 02:19:47;;;;;;;0.75;0.10;;;21.40;36.70;;;;;;5050987;28;20040;-82
2021/04/17 02:22:15;;;;;;;0.35;0.10;;;21.30;36.60;;;;;;5033490;28;20029;-83
2021/04/17 02:24:41;;;;;;;0.35;0.03;;;21.30;36.60;;;;;;5039135;28;20029;-82
2021/04/17 02:27:07;;;;;;;0.20;0.10;;;21.30;36.70;;;;;;5032892;28;20485;-82
2021/04/17 02:29:33;;;;;;;0.25;0.10;;;21.30;36.70;;;;;;5038780;28;20021;-82
2021/04/17 02:31:59;;;;;;;0.57;0.00;;;21.30;36.60;;;;;;5015367;28;20059;-82
2021/04/17 02:34:26;;;;;;;0.30;0.10;;;21.30;36.50;;;;;;5015758;28;20072;-83
2021/04/17 02:36:52;;;;;;;0.50;0.10;;;21.20;36.50;;;;;;5051351;28;20746;-82
2021/04/17 02:39:18;;;;;;;0.13;0.10;;;21.30;36.50;;;;;;5036104;28;20019;-82
2021/04/17 02:41:44;;;;;;;0.20;0.03;;;21.30;36.50;;;;;;5021510;28;20029;-83
2021/04/17 02:44:09;;;;;;;0.13;0.00;;;21.30;36.50;;;;;;5023279;28;20021;-83
2021/04/17 02:46:35;;;;;;;0.20;0.00;;;21.20;36.40;;;;;;5013798;28;20033;-82
2021/04/17 02:49:00;;;;;;;0.15;0.00;;;21.20;36.40;;;;;;5014487;28;20022;-83
2021/04/17 02:51:26;;;;;;;0.20;0.10;;;21.30;36.50;;;;;;5033509;28;20025;-82
2021/04/17 02:53:52;;;;;;;0.25;0.10;;;21.20;36.50;;;;;;5019257;28;20088;-82
2021/04/17 02:56:18;;;;;;;0.10;0.00;;;21.20;36.50;;;;;;5053613;28;20037;-82
2021/04/17 02:58:44;;;;;;;0.20;0.00;;;21.20;36.50;;;;;;5038142;28;20084;-81
2021/04/17 03:01:10;;;;;;;0.73;0.00;;;21.20;36.40;;;;;;5033840;28;20033;-83
2021/04/17 03:03:35;;;;;;;1.40;0.10;;;21.20;36.40;;;;;;5031525;28;20037;-82
2021/04/17 03:06:01;;;;;;;0.32;0.00;;;21.20;36.50;;;;;;5017941;28;20513;-83
2021/04/17 03:08:26;;;;;;;0.10;0.00;;;21.20;36.40;;;;;;5032873;28;20024;-82
2021/04/17 03:10:52;;;;;;;0.28;0.10;;;21.20;36.40;;;;;;5033344;28;20037;-83
2021/04/17 03:13:18;;;;;;;0.20;0.00;;;21.10;36.30;;;;;;5035225;28;20032;-82
2021/04/17 03:15:44;;;;;;;0.15;0.00;;;21.10;36.30;;;;;;5013465;28;20404;-82
2021/04/17 03:18:10;;;;;;;0.10;0.00;;;21.20;36.50;;;;;;5015517;28;20366;-83
2021/04/17 03:20:35;;;;;;;0.22;0.05;;;21.10;36.40;;;;;;5050652;28;20025;-83
2021/04/17 03:23:01;;;;;;;0.60;0.10;;;21.10;36.40;;;;;;5049390;28;20083;-82
2021/04/17 03:25:27;;;;;;;0.20;0.00;;;21.10;36.30;;;;;;5013310;28;20057;-81
2021/04/17 03:27:53;;;;;;;0.50;0.10;;;21.10;36.40;;;;;;5015305;28;20036;-82
2021/04/17 03:30:27;;;;;;;0.20;0.05;;;21.10;36.40;;;;;;5016219;28;20021;-82
2021/04/17 03:32:52;;;;;;;0.13;0.00;;;21.10;36.40;;;;;;5050436;28;20033;-82
2021/04/17 03:35:18;;;;;;;0.30;0.10;;;21.10;36.40;;;;;;5046353;28;20108;-81
2021/04/17 03:37:44;;;;;;;0.28;0.03;;;21.10;36.30;;;;;;5014878;28;20033;-81
2021/04/17 03:40:10;;;;;;;0.20;0.00;;;21.10;36.40;;;;;;5031802;28;20405;-82
2021/04/17 03:42:36;;;;;;;0.20;0.00;;;21.10;36.40;;;;;;5014454;28;20444;-82
2021/04/17 03:45:04;;;;;;;0.38;0.10;;;21.00;36.30;;;;;;5030156;28;20032;-82
2021/04/17 03:47:30;;;;;;;0.20;0.10;;;21.10;36.30;;;;;;5033049;28;20039;-81
2021/04/17 03:49:55;;;;;;;0.30;0.10;;;21.10;36.30;;;;;;5029162;28;20414;-82
2021/04/17 03:52:21;;;;;;;0.20;0.08;;;21.00;36.30;;;;;;5032250;28;20025;-83
2021/04/17 03:54:46;;;;;;;0.80;0.13;;;21.00;36.30;;;;;;5030709;28;20100;-82
2021/04/17 03:57:12;;;;;;;0.13;0.00;;;21.00;36.30;;;;;;5011382;28;20083;-81
2021/04/17 03:59:38;;;;;;;0.10;0.00;;;21.00;36.30;;;;;;5017949;28;20053;-82
2021/04/17 04:02:04;;;;;;;0.77;0.00;;;21.00;36.20;;;;;;5030914;28;20021;-83
2021/04/17 04:04:30;;;;;;;0.20;0.00;;;21.00;36.20;;;;;;5014874;28;20029;-83
2021/04/17 04:06:55;;;;;;;0.20;0.10;;;21.00;36.30;;;;;;5031245;28;20024;-82
2021/04/17 04:09:21;;;;;;;0.75;0.10;;;21.00;36.30;;;;;;5034471;28;20021;-81
2021/04/17 04:11:47;;;;;;;0.47;0.10;;;21.00;36.30;;;;;;5019752;28;20484;-82
2021/04/17 04:14:12;;;;;;;0.20;0.00;;;21.00;36.30;;;;;;5032613;28;20133;-82
2021/04/17 04:16:38;;;;;;;0.13;0.03;;;21.00;36.30;;;;;;5030952;28;20559;-81
2021/04/17 04:19:04;;;;;;;0.17;0.00;;;21.00;36.20;;;;;;5022980;28;20021;-81
2021/04/17 04:21:29;;;;;;;0.30;0.03;;;20.90;36.20;;;;;;5031586;28;20016;-82
2021/04/17 04:23:55;;;;;;;0.30;0.08;;;20.90;36.20;;;;;;5018765;28;20063;-81
2021/04/17 04:26:21;;;;;;;0.63;0.10;;;20.90;36.20;;;;;;5051994;28;20029;-81
2021/04/17 04:28:46;;;;;;;0.60;0.00;;;20.90;36.20;;;;;;5054742;28;20029;-81
2021/04/17 04:31:12;;;;;;;0.40;0.10;;;20.90;36.10;;;;;;5033545;28;20025;-81
2021/04/17 04:33:37;;;;;;;0.40;0.10;;;20.90;36.20;;;;;;5033877;28;20029;-81
2021/04/17 04:36:03;;;;;;;0.40;0.08;;;20.90;36.10;;;;;;5047097;28;20111;-82
2021/04/17 04:38:29;;;;;;;0.10;0.10;;;20.90;36.70;;;;;;5036674;28;20131;-82
2021/04/17 04:40:54;;;;;;;0.65;0.05;;;20.90;36.20;;;;;;5059080;28;20036;-80
2021/04/17 04:43:20;;;;;;;0.20;0.03;;;20.90;36.10;;;;;;5044906;28;20117;-81
2021/04/17 04:45:46;;;;;;;0.30;0.10;;;20.90;36.10;;;;;;5031152;28;20500;-81
2021/04/17 04:48:11;;;;;;;0.13;0.00;;;20.90;36.10;;;;;;5012342;28;20040;-82
2021/04/17 04:50:38;;;;;;;0.20;0.00;;;20.90;36.10;;;;;;5014422;28;20036;-81
2021/04/17 04:53:04;;;;;;;0.73;0.03;;;20.90;36.10;;;;;;5011006;28;20052;-81
2021/04/17 04:55:30;;;;;;;0.35;0.10;;;20.90;36.20;;;;;;5036625;28;20024;-81
2021/04/17 04:57:55;;;;;;;0.15;0.00;;;20.90;36.10;;;;;;5034092;28;20459;-80
2021/04/17 05:00:22;;;;;;;0.80;0.10;;;20.90;36.20;;;;;;5029263;28;20104;-81
2021/04/17 05:02:48;;;;;;;0.22;0.00;;;20.90;36.20;;;;;;5020213;28;20056;-80
2021/04/17 05:05:14;;;;;;;1.17;0.05;;;20.80;36.10;;;;;;5013262;28;20149;-81
2021/04/17 05:07:40;;;;;;;1.15;0.10;;;20.80;36.10;;;;;;5035297;28;20430;-81
2021/04/17 05:10:06;;;;;;;0.17;0.00;;;20.90;36.20;;;;;;5030706;28;20052;-81
2021/04/17 05:12:32;;;;;;;0.20;0.00;;;20.90;36.20;;;;;;5037680;28;20037;-81
2021/04/17 05:14:57;;;;;;;0.13;0.00;;;20.80;36.10;;;;;;5035005;28;20029;-81
2021/04/17 05:17:23;;;;;;;0.73;0.08;;;20.80;36.20;;;;;;5037373;28;20025;-81
2021/04/17 05:19:48;;;;;;;0.22;0.10;;;20.80;36.10;;;;;;5018991;28;20029;-81
2021/04/17 05:22:14;;;;;;;0.20;0.00;;;20.80;36.10;;;;;;5039174;28;20037;-81
2021/04/17 05:24:44;;;;;;;0.43;0.08;;;20.80;36.10;;;;;;5039729;28;20569;-82
2021/04/17 05:27:10;;;;;;;0.20;0.05;;;20.80;36.10;;;;;;5016245;28;20132;-82
2021/04/17 05:29:35;;;;;;;1.25;0.10;;;20.80;36.00;;;;;;5039417;28;20143;-83
2021/04/17 05:32:01;;;;;;;0.65;0.00;;;20.80;36.10;;;;;;5014738;28;20032;-83
2021/04/17 05:34:27;;;;;;;0.20;0.00;;;20.80;36.10;;;;;;5019711;28;20033;-82
2021/04/17 05:36:52;;;;;;;0.32;0.05;;;20.80;36.10;;;;;;5055019;28;20095;-82
2021/04/17 05:39:18;;;;;;;0.40;0.00;;;20.80;36.10;;;;;;5034096;28;20037;-82
2021/04/17 05:41:44;;;;;;;0.13;0.03;;;20.80;36.10;;;;;;5032571;28;20021;-83
2021/04/17 05:44:12;;;;;;;0.35;0.10;;;20.80;36.10;;;;;;5045636;28;20025;-83
2021/04/17 05:46:56;;;;;;;0.22;0.00;;;20.80;36.10;;;;;;5057062;28;20411;-83
2021/04/17 05:49:22;;;;;;;1.15;0.00;;;20.80;36.00;;;;;;5035967;28;20029;-83
2021/04/17 05:52:06;;;;;;;0.20;0.00;;;20.80;36.60;;;;;;5051875;28;20047;-83
2021/04/17 05:54:32;;;;;;;0.13;0.00;;;20.70;36.00;;;;;;5034144;28;20084;-83
2021/04/17 05:56:57;;;;;;;0.95;0.05;;;20.70;36.00;;;;;;5053263;28;20033;-84
2021/04/17 05:59:23;;;;;;;0.73;0.10;;;20.80;36.10;;;;;;5026835;28;20028;-81
2021/04/17 06:02:08;;;;;;;1.20;0.10;;;20.80;36.10;;;;;;5036524;28;20035;-81
2021/04/17 06:04:34;;;;;;;0.63;0.00;;;20.70;35.90;;;;;;5027472;28;20033;-81
2021/04/17 06:07:18;;;;;;;0.20;0.00;;;20.80;36.10;;;;;;5052350;28;20083;-81
2021/04/17 06:09:43;;;;;;;1.45;0.00;;;20.70;36.00;;;;;;5018600;28;20489;-81
2021/04/17 06:12:09;;;;;;;0.30;0.10;;;20.70;35.90;;;;;;5032963;28;20039;-81
2021/04/17 06:14:35;;;;;;;0.38;0.10;;;20.80;36.00;;;;;;5034030;28;20520;-81
2021/04/17 06:17:00;;;;;;;0.22;0.00;;;20.80;35.90;;;;;;5052144;28;20037;-80
2021/04/17 06:19:26;;;;;;;0.10;0.00;;;20.70;35.90;;;;;;5036383;28;20017;-81
2021/04/17 06:21:52;;;;;;;0.20;0.00;;;20.70;35.90;;;;;;5035966;28;20029;-81
2021/04/17 06:24:17;;;;;;;0.40;0.10;;;20.70;36.00;;;;;;5031898;28;20025;-82
2021/04/17 06:26:43;;;;;;;0.68;0.10;;;20.70;36.00;;;;;;5033296;28;20025;-81
2021/04/17 06:29:09;;;;;;;0.30;0.00;;;20.70;36.00;;;;;;5015309;28;20080;-81
2021/04/17 06:31:54;;;;;;;0.20;0.00;;;20.70;36.00;;;;;;5060690;28;20163;-82
2021/04/17 06:34:19;;;;;;;0.40;0.10;;;20.70;36.00;;;;;;5017586;28;20024;-82
2021/04/17 06:37:03;;;;;;;0.40;0.10;;;20.70;35.90;;;;;;5039234;28;20051;-80
2021/04/17 06:39:29;;;;;;;0.10;0.00;;;20.70;36.00;;;;;;5039037;28;20024;-82
2021/04/17 06:42:16;;;;;;;0.30;0.10;;;20.70;36.00;;;;;;5044834;28;20078;-81
2021/04/17 06:44:44;;;;;;;0.30;0.10;;;20.80;36.00;;;;;;5040240;28;20021;-80
2021/04/17 06:47:12;;;;;;;0.20;0.10;;;20.70;35.90;;;;;;5017104;28;20037;-81
2021/04/17 06:49:58;;;;;;;0.50;0.20;;;20.70;36.00;;;;;;5055179;28;20047;-81
2021/04/17 06:52:26;;;;;;;1.10;0.10;;;20.70;36.00;;;;;;5034988;28;20049;-80
2021/04/17 06:55:10;;;;;;;0.20;0.10;;;20.60;36.00;;;;;;5057559;28;20067;-79
2021/04/17 06:57:36;;;;;;;0.40;0.10;;;20.70;36.00;;;;;;5019195;23;20045;-40
2021/04/17 07:00:23;;;;;;;0.43;0.13;;;20.70;36.10;;;;;;5000690;28;20030;-45
2021/04/17 07:02:48;;;;;;;0.75;0.20;;;20.70;36.10;;;;;;5002690;28;20026;-47
2021/04/17 07:05:33;;;;;;;0.63;0.10;;;20.70;36.10;;;;;;5002401;28;20089;-46
2021/04/17 07:08:02;;;;;;;1.52;0.10;;;20.70;36.20;;;;;;4985400;28;20034;-43
2021/04/17 07:10:28;;;;;;;0.38;0.17;;;20.70;36.10;;;;;;5004007;28;20080;-47
2021/04/17 07:13:14;;;;;;;0.88;0.25;;;20.70;36.10;;;;;;5002237;28;20041;-44
2021/04/17 07:15:41;;;;;;;0.50;0.20;;;20.70;36.10;;;;;;5002852;28;20978;-44
2021/04/17 07:18:27;;;;;;;0.95;0.10;;;20.70;36.10;;;;;;5007681;28;20244;-43
2021/04/17 07:20:54;;;;;;;0.93;0.10;;;20.70;36.10;;;;;;5005740;28;20040;-42
2021/04/17 07:23:32;;;;;;;1.00;0.20;;;20.70;36.10;;;;;;5003675;28;20569;-44
2021/04/17 07:26:25;;;;;;;0.85;0.30;;;20.70;36.10;;;;;;5002060;28;20578;-41
2021/04/17 07:28:54;;;;;;;0.60;0.20;;;20.70;36.00;;;;;;5000375;28;20423;-43
2021/04/17 07:31:20;;;;;;;0.65;0.20;;;20.70;35.90;;;;;;5001616;28;20026;-44
2021/04/17 07:33:46;;;;;;;1.85;0.20;;;20.70;35.90;;;;;;5002042;28;20085;-41
2021/04/17 07:36:11;;;;;;;1.27;0.30;;;20.80;35.90;;;;;;5000667;28;20087;-44
2021/04/17 07:38:38;;;;;;;0.80;0.38;;;20.70;35.80;;;;;;5000146;28;20038;-44
2021/04/17 07:41:10;;;;;;;1.77;0.45;;;20.80;35.90;;;;;;5000609;28;20026;-42
2021/04/17 07:43:58;;;;;;;0.82;0.40;;;20.80;35.90;;;;;;5000398;28;20061;-44
2021/04/17 07:46:27;;;;;;;1.30;0.30;;;20.80;35.80;;;;;;5001667;28;20684;-45
2021/04/17 07:49:14;;;;;;;1.55;0.52;;;20.80;35.90;;;;;;5002351;28;20173;-45
2021/04/17 07:52:12;;;;;;;1.30;0.63;;;20.80;35.80;;;;;;5000866;28;20553;-46
2021/04/17 07:54:57;;;;;;;1.70;0.85;;;20.80;35.80;;;;;;5001309;28;20113;-47
2021/04/17 07:57:52;;;;;;;1.10;0.80;;;20.80;35.80;;;;;;4998436;28;20181;-45
2021/04/17 08:00:20;;;;;;;1.00;0.47;;;20.80;35.80;;;;;;5002990;28;20101;-46
2021/04/17 08:03:06;;;;;;;2.55;0.80;;;20.80;35.70;;;;;;5008395;28;20033;-43
2021/04/17 08:05:32;;;;;;;2.85;0.70;;;20.80;35.70;;;;;;5004671;28;20041;-45
2021/04/17 08:08:17;;;;;;;1.83;1.10;;;20.80;35.70;;;;;;5005871;28;20044;-46
2021/04/17 08:10:44;;;;;;;1.80;0.90;;;20.80;35.70;;;;;;5003369;28;20947;-43
2021/04/17 08:13:10;;;;;;;2.45;0.70;;;20.80;35.70;;;;;;5008740;28;20044;-44
2021/04/17 08:15:36;;;;;;;1.63;0.60;;;20.80;35.70;;;;;;4999907;28;20026;-43
2021/04/17 08:18:20;;;;;;;2.22;0.85;;;20.80;35.70;;;;;;5003504;28;20073;-42
2021/04/17 08:20:46;;;;;;;1.77;0.80;;;20.80;35.70;;;;;;4999423;28;20054;-44
2021/04/17 08:23:12;;;;;;;2.17;0.95;;;20.80;35.70;;;;;;5001779;28;20034;-41
2021/04/17 08:25:38;;;;;;;1.10;0.68;;;20.90;35.70;;;;;;5000233;28;20030;-42
2021/04/17 08:28:16;;;;;;;1.15;0.63;;;20.90;35.70;;;;;;5003817;28;20022;-43
2021/04/17 08:30:42;;;;;;;4.97;0.98;;;20.90;35.70;;;;;;5006049;28;20092;-46
2021/04/17 08:33:21;;;;;;;1.73;0.80;;;20.90;35.70;;;;;;5001052;28;20030;-45
2021/04/17 08:35:47;;;;;;;1.90;0.88;;;20.90;35.70;;;;;;5001787;28;20038;-46
2021/04/17 08:38:14;;;;;;;2.78;0.90;;;20.90;35.70;;;;;;5004569;28;20034;-45
2021/04/17 08:40:42;;;;;;;1.70;0.73;;;20.90;35.70;;;;;;5001373;28;20014;-42
2021/04/17 08:43:12;;;;;;;1.95;0.65;;;20.90;35.70;;;;;;5002418;28;20076;-43
2021/04/17 08:45:57;;;;;;;1.90;0.68;;;20.90;35.70;;;;;;5004598;28;20521;-45
2021/04/17 08:48:49;;;;;;;1.20;0.57;;;21.00;35.70;;;;;;5005227;28;20534;-44
2021/04/17 08:51:21;;;;;;;3.63;0.80;;;21.00;35.80;;;;;;5003586;28;20050;-44
2021/04/17 08:53:50;;;;;;;;;;;21.00;35.80;;;;;;5006003;28;20125;-41
2021/04/17 08:56:16;;;;;;;3.15;0.80;;;21.00;35.80;;;;;;5006127;28;20362;-44
2021/04/17 08:59:01;;;;;;;2.03;0.85;;;21.00;35.70;;;;;;5005284;28;20022;-42
2021/04/17 09:01:27;;;;;;;1.58;0.77;;;21.00;35.80;;;;;;5004121;28;20026;-43
2021/04/17 09:03:52;;;;;;;2.03;0.90;;;21.00;35.80;;;;;;5004988;28;20029;-44
2021/04/17 09:06:24;;;;;;;3.10;0.90;;;21.00;35.80;;;;;;5007079;28;20797;-43
2021/04/17 09:09:21;;;;;;;1.50;0.50;;;21.00;35.80;;;;;;5004800;28;20107;-43
2021/04/17 09:11:49;;;;;;;2.53;0.80;;;21.10;35.90;;;;;;5003340;28;20072;-42
2021/04/17 09:14:31;;;;;;;0.98;0.60;;;21.10;35.90;;;;;;5003545;28;20093;-42
2021/04/17 09:16:58;;;;;;;;;;;21.10;35.90;;;;;;5006631;28;20038;-42
2021/04/17 09:19:41;;;;;;;2.80;0.95;;;21.10;35.90;;;;;;5004985;28;19917;-42
2021/04/17 09:22:25;;;;;;;;;;;21.10;36.00;;;;;;5005447;28;20064;-43
2021/04/17 09:25:04;;;;;;;1.83;0.90;;;21.10;36.00;;;;;;5006682;28;19918;-45
2021/04/17 09:27:35;;;;;;;3.42;1.00;;;21.10;36.00;;;;;;5006882;28;20033;-46
2021/04/17 09:30:10;;;;;;;1.52;0.88;;;21.10;36.00;;;;;;5002875;28;20033;-43
2021/04/17 09:32:35;;;;;;;1.55;0.90;;;21.20;36.10;;;;;;4988451;28;20031;-43
2021/04/17 09:35:20;;;;;;;1.95;0.80;;;21.20;36.10;;;;;;5005011;28;20083;-44
2021/04/17 09:37:59;;;;;;;1.88;0.73;;;21.10;36.10;;;;;;5000890;28;20034;-43
2021/04/17 09:40:39;;;;;;;1.42;0.60;;;21.20;36.20;;;;;;5002248;28;20025;-45
2021/04/17 09:43:08;;;;;;;1.10;0.70;;;21.10;36.10;;;;;;5005137;28;20081;-45
2021/04/17 09:45:39;;;;;;;1.38;0.63;;;21.20;36.10;;;;;;5001971;28;20027;-42
2021/04/17 09:48:09;;;;;;;1.52;0.73;;;21.20;36.20;;;;;;4988203;28;20026;-43
2021/04/17 09:50:37;;;;;;;1.20;0.60;;;21.20;36.40;;;;;;5005681;28;20711;-47
2021/04/17 09:53:22;;;;;;;3.20;0.70;;;21.30;36.70;;;;;;5005796;28;20100;-47
2021/04/17 09:56:12;;;;;;;1.38;0.75;;;21.30;37.50;;;;;;5004814;28;20537;-43
2021/04/17 09:58:43;;;;;;;0.90;0.63;;;21.40;38.10;;;;;;5004304;28;20037;-43
2021/04/17 10:01:10;;;;;;;3.35;0.90;;;21.40;38.30;;;;;;5004696;28;20026;-45
2021/04/17 10:03:38;;;;;;;1.55;0.90;;;21.40;39.00;;;;;;5004472;28;20033;-45
2021/04/17 10:06:04;;;;;;;1.70;0.75;;;21.40;39.30;;;;;;5002143;28;20026;-43
2021/04/17 10:08:32;;;;;;;2.50;0.82;;;21.50;39.30;;;;;;5003592;28;20112;-47
2021/04/17 10:10:59;;;;;;;1.20;0.60;;;21.50;39.30;;;;;;5004486;28;20028;-45
2021/04/17 10:13:38;;;;;;;3.47;0.75;;;21.50;39.50;;;;;;5004186;28;20034;-40
2021/04/17 10:16:24;;;;;;;1.63;0.75;;;21.50;39.40;;;;;;5004951;28;20072;-43
2021/04/17 10:18:49;;;;;;;1.77;0.63;;;21.60;39.40;;;;;;5006788;28;20526;-47
2021/04/17 10:21:15;;;;;;;1.23;0.45;;;21.60;39.10;;;;;;5003573;28;20029;-42
2021/04/17 10:23:41;;;;;;;1.23;0.50;;;21.60;39.00;;;;;;4987567;28;20835;-43
2021/04/17 10:26:10;;;;;;;1.35;0.50;;;21.60;38.80;;;;;;5004785;28;20022;-45
2021/04/17 10:28:37;;;;;;;1.98;0.50;;;21.60;38.90;;;;;;5003810;28;20458;-45
2021/04/17 10:31:18;;;;;;;1.50;0.50;;;21.70;39.00;;;;;;5002963;28;20025;-49
2021/04/17 10:33:46;;;;;;;1.40;0.40;;;21.60;39.30;;;;;;5005548;28;20076;-49
2021/04/17 10:36:30;;;;;;;1.65;0.45;;;21.60;39.40;;;;;;5004389;28;20343;-49
2021/04/17 10:39:14;;;;;;;1.30;0.40;;;21.50;38.70;;;;;;5003211;28;20398;-48
2021/04/17 10:41:41;;;;;;;2.58;0.60;;;21.50;38.50;;;;;;5003723;28;20025;-47
2021/04/17 10:44:11;;;;;;;1.40;0.60;;;21.50;38.20;;;;;;5005451;28;20038;-49
2021/04/17 10:46:47;;;;;;;1.13;0.20;;;21.50;38.00;;;;;;4989241;28;20037;-46
2021/04/17 10:49:35;;;;;;;1.30;0.40;;;21.50;37.80;;;;;;5012308;28;20026;-47
2021/04/17 10:52:21;;;;;;;1.50;0.22;;;21.50;37.70;;;;;;5006165;28;20398;-47
2021/04/17 10:54:51;;;;;;;1.20;0.40;;;21.50;37.60;;;;;;5008021;28;20115;-49
2021/04/17 10:57:17;;;;;;;2.08;0.20;;;21.60;37.50;;;;;;5006152;28;20560;-48
2021/04/17 11:00:01;;;;;;;1.20;0.30;;;21.60;37.50;;;;;;4999592;28;20029;-46
2021/04/17 11:02:35;;;;;;;1.30;0.20;;;21.60;37.40;;;;;;5003392;28;20573;-44
2021/04/17 11:05:19;;;;;;;2.33;0.50;;;21.60;37.30;;;;;;4999165;28;20036;-45
2021/04/17 11:07:46;;;;;;;1.02;0.40;;;21.60;37.30;;;;;;5002410;28;20097;-45
2021/04/17 11:10:12;;;;;;;1.27;0.30;;;21.60;37.30;;;;;;5000692;28;20076;-42
2021/04/17 11:12:38;;;;;;;2.15;0.40;;;21.60;37.30;;;;;;5001870;28;20042;-45
2021/04/17 11:15:27;;;;;;;0.70;0.30;;;21.60;37.30;;;;;;5002167;28;20549;-46
2021/04/17 11:18:15;;;;;;;0.70;0.30;;;21.60;37.30;;;;;;5000317;28;20022;-45
2021/04/17 11:21:05;;;;;;;1.75;0.70;;;21.60;37.10;;;;;;5000125;28;20032;-45
2021/04/17 11:23:48;;;;;;;1.58;0.45;;;21.60;37.00;;;;;;5005128;28;20407;-45
2021/04/17 11:26:33;;;;;;;1.58;0.50;;;21.60;37.00;;;;;;5000522;28;20049;-47
2021/04/17 11:29:03;;;;;;;1.42;0.70;;;21.60;36.80;;;;;;5000636;28;20525;-45
2021/04/17 11:31:31;;;;;;;1.55;0.80;;;21.60;36.70;;;;;;4998980;28;20033;-45
2021/04/17 11:34:17;;;;;;;2.70;0.50;;;21.60;36.60;;;;;;5004489;28;20053;-44
2021/04/17 11:36:43;;;;;;;2.97;0.65;;;21.60;36.50;;;;;;4999793;28;20573;-44
2021/04/17 11:39:09;;;;;;;1.85;0.63;;;21.60;36.50;;;;;;5003884;28;20144;-46
2021/04/17 11:41:34;;;;;;;1.45;0.40;;;21.60;36.20;;;;;;5001370;28;20033;-49
2021/04/17 11:44:03;;;;;;;1.25;0.50;;;21.60;35.90;;;;;;5002587;28;20098;-47
2021/04/17 11:46:29;;;;;;;1.50;0.40;;;21.60;36.00;;;;;;5000695;28;20026;-47
2021/04/17 11:48:54;;;;;;;2.17;0.57;;;21.60;35.70;;;;;;5059904;22;20052;-45
2021/04/17 11:51:21;;;;;;;1.05;0.30;;;21.60;36.40;;;;;;5036792;28;21464;-44
2021/04/17 11:53:48;;;;;;;1.15;0.30;;;21.60;36.50;;;;;;5041401;28;20078;-40
2021/04/17 11:56:16;;;;;;;1.85;0.40;;;21.60;36.50;;;;;;5024613;28;20059;-42
2021/04/17 11:58:42;;;;;;;1.52;0.32;;;21.60;36.50;;;;;;5037457;28;20111;-43
2021/04/17 12:01:09;;;;;;;1.00;0.25;;;21.60;36.50;;;;;;5037870;28;20532;-44
2021/04/17 12:03:35;;;;;;;1.33;0.30;;;21.60;36.40;;;;;;5039316;28;20104;-42
2021/04/17 12:06:00;;;;;;;3.60;0.32;;;21.60;36.40;;;;;;5003232;28;20029;-45
2021/04/17 12:08:26;;;;;;;2.67;0.40;;;21.60;36.40;;;;;;5051193;28;20024;-42
2021/04/17 12:11:10;;;;;;;2.15;0.20;;;21.60;36.50;;;;;;5038834;28;20102;-43
2021/04/17 12:13:36;;;;;;;1.98;0.40;;;21.70;36.50;;;;;;5039673;28;20032;-41
2021/04/17 12:16:20;;;;;;;0.68;0.47;;;21.70;36.50;;;;;;5039539;28;20071;-43
2021/04/17 12:18:46;;;;;;;1.50;0.40;;;21.60;36.40;;;;;;5039100;28;20516;-42
2021/04/17 12:21:12;;;;;;;1.90;0.35;;;21.70;36.50;;;;;;5020787;28;20025;-41
2021/04/17 12:23:38;;;;;;;1.67;0.47;;;21.70;36.50;;;;;;5037857;28;20136;-44
2021/04/17 12:26:22;;;;;;;1.30;0.68;;;21.70;36.50;;;;;;5038903;28;20039;-42
2021/04/17 12:28:48;;;;;;;2.10;0.68;;;21.70;36.50;;;;;;5039719;28;20128;-46
2021/04/17 12:31:13;;;;;;;1.58;0.98;;;21.70;36.50;;;;;;5040999;28;20344;-42
2021/04/17 12:33:39;;;;;;;1.15;0.60;;;21.60;36.40;;;;;;5021628;28;20117;-44
2021/04/17 12:36:05;;;;;;;1.60;0.77;;;21.70;36.50;;;;;;5037495;28;20025;-43
2021/04/17 12:38:31;;;;;;;2.20;0.82;;;21.70;36.40;;;;;;5038780;28;20029;-42
2021/04/17 12:41:15;;;;;;;1.73;0.93;;;21.60;36.40;;;;;;5038849;28;20047;-45
2021/04/17 12:43:40;;;;;;;2.10;0.90;;;21.70;36.40;;;;;;5037289;28;20021;-40
2021/04/17 12:46:06;;;;;;;2.10;0.85;;;21.70;36.40;;;;;;5038586;28;20510;-43
2021/04/17 12:48:31;;;;;;;1.95;1.17;;;21.70;36.40;;;;;;5025130;28;20060;-38
2021/04/17 12:51:00;;;;;;;1.52;1.05;;;21.70;36.40;;;;;;5040777;28;20033;-44
2021/04/17 12:53:26;;;;;;;2.35;1.50;;;21.70;36.40;;;;;;5042099;28;20028;-45
2021/04/17 12:56:10;;;;;;;1.58;1.38;;;21.70;36.40;;;;;;5038820;28;20724;-43
2021/04/17 12:58:38;;;;;;;5.22;1.40;;;21.70;36.40;;;;;;5038942;28;20045;-40
2021/04/17 13:01:22;;;;;;;3.08;1.70;;;21.70;36.40;;;;;;5039675;28;20040;-46
2021/04/17 13:03:48;;;;;;;3.70;1.15;;;21.70;36.50;;;;;;5045932;28;20029;-45